Overview Statistics Trail Chart Weather Telemetry Raw packets
 

This is the latest recevied weather packets stored in our database for station/object AG1T-20. If no packets are shown the sender has not sent any weather packets the latest 10 day(s).

<< 41 42 43 44 45 46 47 >>
Time Temp. Humidity Pressure Rain* Wind** Luminosity Snow
1787979605 17.22° C 89% 1021.2 hPa 0 mm - 0 W/m² -
1787979005 17.78° C 85% 1021.1 hPa 0 mm - 0 W/m² -
1787978405 18.33° C 83% 1021.1 hPa 0 mm - 0 W/m² -
1787977805 18.89° C 77% 1021.1 hPa 0 mm - 0 W/m² -
1787977205 18.89° C 76% 1021.1 hPa 0 mm - 0 W/m² -
1787976605 18.89° C 75% 1021.1 hPa 0 mm - 0 W/m² -
1787976005 18.89° C 77% 1021.1 hPa 0 mm - 0 W/m² -
1787975405 18.89° C 76% 1020.8 hPa 0 mm - 0 W/m² -
1787974805 18.89° C 75% 1020.8 hPa 0 mm - 0 W/m² -
1787974205 18.89° C 74% 1020.8 hPa 0 mm - 0 W/m² -
1787973605 20° C 71% 1020.8 hPa 0 mm - 0 W/m² -
1787973005 20.56° C 66% 1020.8 hPa 0 mm - 0 W/m² -
1787972405 20.56° C 65% 1020.8 hPa 0 mm - 0 W/m² -
1787971805 20° C 66% 1020.7 hPa 0 mm - 0 W/m² -
1787971205 20° C 68% 1020.7 hPa 0 mm - 0 W/m² -
1787970605 20° C 68% 1020.7 hPa 0.25 mm - 0 W/m² -
1787970005 20.56° C 68% 1020.7 hPa 0.76 mm - 0 W/m² -
1787969405 20.56° C 63% 1020.7 hPa 1.02 mm - 0 W/m² -
1787968805 21.11° C 64% 1020.7 hPa 1.02 mm - 4 W/m² -
1787968205 21.67° C 61% 1018.5 hPa 1.02 mm - 9 W/m² -
1787967605 20° C 70% 1018.5 hPa 1.02 mm - 13 W/m² -
1787967005 19.44° C 73% 1018.5 hPa 0.76 mm - 26 W/m² -
1787966404 19.44° C 71% 1018.5 hPa 0.25 mm - 31 W/m² -
1787965805 20.56° C 65% 1018.5 hPa 0 mm - 4 W/m² -
1787965205 27.78° C 35% 1018.5 hPa 0 mm - 4 W/m² -

* Rain latest hour (hover to see other rain measurements)
** Current wind speed in m/s (hover to see current wind gust speed)